sensor_id;sensor_type;location;lat;lon;timestamp;P1;durP1;ratioP1;P2;durP2;ratioP2
25687;SDS011;17407;51.120;3.702;2023-05-19T10:24:33;14.38;;;7.63;;
25687;SDS011;17407;51.120;3.702;2023-05-19T10:27:06;13.95;;;7.03;;
25687;SDS011;17407;51.120;3.702;2023-05-19T10:29:36;13.32;;;7.88;;
25687;SDS011;17407;51.120;3.702;2023-05-19T10:32:09;14.15;;;7.53;;
25687;SDS011;17407;51.120;3.702;2023-05-19T10:37:50;13.00;;;6.63;;
25687;SDS011;17407;51.120;3.702;2023-05-19T10:40:20;8.80;;;6.05;;
25687;SDS011;17407;51.120;3.702;2023-05-19T10:42:55;13.45;;;8.20;;
25687;SDS011;17407;51.120;3.702;2023-05-19T10:45:40;15.85;;;8.30;;
25687;SDS011;17407;51.120;3.702;2023-05-19T10:48:15;15.13;;;7.35;;
25687;SDS011;17407;51.120;3.702;2023-05-19T10:50:43;11.27;;;7.30;;
25687;SDS011;17407;51.120;3.702;2023-05-19T10:53:13;15.27;;;7.13;;
25687;SDS011;17407;51.120;3.702;2023-05-19T10:55:49;13.15;;;7.03;;
25687;SDS011;17407;51.120;3.702;2023-05-19T10:58:49;13.82;;;6.65;;
25687;SDS011;17407;51.120;3.702;2023-05-19T11:01:11;13.05;;;6.40;;
25687;SDS011;17407;51.120;3.702;2023-05-19T11:03:50;11.20;;;6.10;;
25687;SDS011;17407;51.120;3.702;2023-05-19T11:08:58;9.40;;;5.53;;
25687;SDS011;17407;51.120;3.702;2023-05-19T11:11:49;9.63;;;5.18;;
25687;SDS011;17407;51.120;3.702;2023-05-19T11:14:20;10.32;;;5.07;;
25687;SDS011;17407;51.120;3.702;2023-05-19T11:16:48;8.75;;;4.78;;
25687;SDS011;17407;51.120;3.702;2023-05-19T11:21:50;13.90;;;3.90;;
25687;SDS011;17407;51.120;3.702;2023-05-19T11:29:50;13.40;;;6.10;;
25687;SDS011;17407;51.120;3.702;2023-05-19T11:32:17;10.48;;;4.45;;
25687;SDS011;17407;51.120;3.702;2023-05-19T11:34:44;8.15;;;3.35;;
25687;SDS011;17407;51.120;3.702;2023-05-19T11:37:10;10.43;;;5.30;;
25687;SDS011;17407;51.120;3.702;2023-05-19T11:39:36;15.90;;;3.38;;
25687;SDS011;17407;51.120;3.702;2023-05-19T11:42:03;9.60;;;3.85;;
25687;SDS011;17407;51.120;3.702;2023-05-19T11:44:28;8.82;;;4.40;;
25687;SDS011;17407;51.120;3.702;2023-05-19T11:46:55;7.85;;;3.65;;
25687;SDS011;17407;51.120;3.702;2023-05-19T11:49:22;11.02;;;3.67;;
25687;SDS011;17407;51.120;3.702;2023-05-19T11:51:48;12.43;;;5.35;;
25687;SDS011;17407;51.120;3.702;2023-05-19T11:54:13;13.18;;;4.90;;
25687;SDS011;17407;51.120;3.702;2023-05-19T11:56:40;8.70;;;4.28;;
25687;SDS011;17407;51.120;3.702;2023-05-19T11:59:07;8.68;;;4.72;;
25687;SDS011;17407;51.120;3.702;2023-05-19T12:01:33;8.45;;;4.47;;
25687;SDS011;17407;51.120;3.702;2023-05-19T12:03:59;9.32;;;4.10;;
25687;SDS011;17407;51.120;3.702;2023-05-19T12:06:25;11.65;;;4.05;;
25687;SDS011;17407;51.120;3.702;2023-05-19T12:08:55;10.55;;;5.20;;
25687;SDS011;17407;51.120;3.702;2023-05-19T12:11:21;10.13;;;4.15;;
25687;SDS011;17407;51.120;3.702;2023-05-19T12:13:47;15.70;;;4.70;;
25687;SDS011;17407;51.120;3.702;2023-05-19T12:16:14;9.93;;;4.38;;
25687;SDS011;17407;51.120;3.702;2023-05-19T12:18:44;16.00;;;5.18;;
25687;SDS011;17407;51.120;3.702;2023-05-19T12:21:09;8.40;;;4.25;;
25687;SDS011;17407;51.120;3.702;2023-05-19T12:23:36;7.40;;;4.70;;
25687;SDS011;17407;51.120;3.702;2023-05-19T12:26:02;11.10;;;4.15;;
25687;SDS011;17407;51.120;3.702;2023-05-19T12:28:29;13.95;;;5.10;;
25687;SDS011;17407;51.120;3.702;2023-05-19T12:30:55;8.52;;;4.53;;
25687;SDS011;17407;51.120;3.702;2023-05-19T12:33:22;9.48;;;4.97;;
25687;SDS011;17407;51.120;3.702;2023-05-19T12:35:48;10.30;;;5.32;;
25687;SDS011;17407;51.120;3.702;2023-05-19T12:38:14;9.57;;;4.68;;
25687;SDS011;17407;51.120;3.702;2023-05-19T12:40:41;9.10;;;5.07;;
25687;SDS011;17407;51.120;3.702;2023-05-19T12:43:07;8.73;;;5.22;;
25687;SDS011;17407;51.120;3.702;2023-05-19T12:45:42;11.13;;;4.90;;
25687;SDS011;17407;51.120;3.702;2023-05-19T12:48:11;11.57;;;5.97;;
25687;SDS011;17407;51.120;3.702;2023-05-19T12:50:37;10.43;;;4.95;;
25687;SDS011;17407;51.120;3.702;2023-05-19T12:53:06;8.20;;;4.65;;
25687;SDS011;17407;51.120;3.702;2023-05-19T12:55:37;11.60;;;5.22;;
25687;SDS011;17407;51.120;3.702;2023-05-19T12:58:07;10.68;;;5.28;;
25687;SDS011;17407;51.120;3.702;2023-05-19T13:00:33;11.93;;;5.40;;
25687;SDS011;17407;51.120;3.702;2023-05-19T13:03:18;15.80;;;6.00;;
25687;SDS011;17407;51.120;3.702;2023-05-19T13:05:45;14.98;;;6.47;;
25687;SDS011;17407;51.120;3.702;2023-05-19T13:08:13;14.93;;;5.88;;
25687;SDS011;17407;51.120;3.702;2023-05-19T13:10:40;12.23;;;5.50;;
25687;SDS011;17407;51.120;3.702;2023-05-19T13:13:08;9.65;;;5.82;;
25687;SDS011;17407;51.120;3.702;2023-05-19T13:15:36;13.07;;;6.18;;
25687;SDS011;17407;51.120;3.702;2023-05-19T13:18:04;15.77;;;5.93;;
25687;SDS011;17407;51.120;3.702;2023-05-19T13:20:32;11.18;;;6.13;;
25687;SDS011;17407;51.120;3.702;2023-05-19T13:22:58;9.85;;;5.32;;
25687;SDS011;17407;51.120;3.702;2023-05-19T20:06:10;15.55;;;6.45;;
25687;SDS011;17407;51.120;3.702;2023-05-19T20:08:35;19.40;;;6.53;;
25687;SDS011;17407;51.120;3.702;2023-05-19T20:11:01;19.15;;;6.60;;
25687;SDS011;17407;51.120;3.702;2023-05-19T20:13:27;30.88;;;7.32;;
25687;SDS011;17407;51.120;3.702;2023-05-19T20:15:52;19.05;;;7.20;;
25687;SDS011;17407;51.120;3.702;2023-05-19T20:18:18;17.80;;;7.38;;
25687;SDS011;17407;51.120;3.702;2023-05-19T20:20:44;17.65;;;6.78;;
25687;SDS011;17407;51.120;3.702;2023-05-19T20:23:09;20.20;;;7.35;;
25687;SDS011;17407;51.120;3.702;2023-05-19T20:25:37;21.63;;;7.30;;
25687;SDS011;17407;51.120;3.702;2023-05-19T20:28:07;17.65;;;6.50;;
25687;SDS011;17407;51.120;3.702;2023-05-19T20:30:33;18.70;;;6.55;;
25687;SDS011;17407;51.120;3.702;2023-05-19T20:32:59;21.73;;;7.18;;
25687;SDS011;17407;51.120;3.702;2023-05-19T20:35:24;19.50;;;7.53;;
25687;SDS011;17407;51.120;3.702;2023-05-19T20:37:50;21.35;;;7.28;;
25687;SDS011;17407;51.120;3.702;2023-05-19T20:40:16;18.52;;;6.97;;
25687;SDS011;17407;51.120;3.702;2023-05-19T20:42:42;18.73;;;7.43;;
25687;SDS011;17407;51.120;3.702;2023-05-19T20:45:08;16.42;;;7.30;;
25687;SDS011;17407;51.120;3.702;2023-05-19T20:47:34;15.90;;;6.57;;
25687;SDS011;17407;51.120;3.702;2023-05-19T20:49:59;19.80;;;7.68;;
25687;SDS011;17407;51.120;3.702;2023-05-19T20:52:25;18.75;;;6.50;;
25687;SDS011;17407;51.120;3.702;2023-05-19T20:54:51;14.43;;;7.13;;
25687;SDS011;17407;51.120;3.702;2023-05-19T20:57:17;18.67;;;7.18;;
25687;SDS011;17407;51.120;3.702;2023-05-19T20:59:43;21.52;;;6.95;;
25687;SDS011;17407;51.120;3.702;2023-05-19T21:02:08;21.05;;;8.80;;
25687;SDS011;17407;51.120;3.702;2023-05-19T21:04:35;20.90;;;7.50;;
25687;SDS011;17407;51.120;3.702;2023-05-19T21:07:01;13.68;;;6.90;;
25687;SDS011;17407;51.120;3.702;2023-05-19T21:09:27;18.85;;;7.35;;
25687;SDS011;17407;51.120;3.702;2023-05-19T21:11:53;13.30;;;7.18;;
25687;SDS011;17407;51.120;3.702;2023-05-19T21:14:19;15.52;;;7.80;;
25687;SDS011;17407;51.120;3.702;2023-05-19T21:16:48;20.92;;;7.22;;
25687;SDS011;17407;51.120;3.702;2023-05-19T21:19:15;26.08;;;7.78;;
25687;SDS011;17407;51.120;3.702;2023-05-19T21:21:41;18.48;;;7.47;;
25687;SDS011;17407;51.120;3.702;2023-05-19T21:24:08;17.52;;;7.35;;
25687;SDS011;17407;51.120;3.702;2023-05-19T21:26:36;18.30;;;6.80;;
25687;SDS011;17407;51.120;3.702;2023-05-19T21:29:02;18.17;;;7.70;;
25687;SDS011;17407;51.120;3.702;2023-05-19T21:31:28;16.30;;;7.15;;
25687;SDS011;17407;51.120;3.702;2023-05-19T21:33:54;13.48;;;7.15;;
25687;SDS011;17407;51.120;3.702;2023-05-19T21:36:19;16.45;;;7.50;;
25687;SDS011;17407;51.120;3.702;2023-05-19T21:38:46;18.80;;;7.35;;
25687;SDS011;17407;51.120;3.702;2023-05-19T21:41:12;13.68;;;6.70;;
25687;SDS011;17407;51.120;3.702;2023-05-19T21:43:38;18.35;;;8.18;;
25687;SDS011;17407;51.120;3.702;2023-05-19T21:46:08;20.42;;;6.97;;
25687;SDS011;17407;51.120;3.702;2023-05-19T21:48:34;16.23;;;7.97;;
25687;SDS011;17407;51.120;3.702;2023-05-19T21:50:59;19.17;;;7.47;;
25687;SDS011;17407;51.120;3.702;2023-05-19T21:53:25;15.70;;;6.85;;
25687;SDS011;17407;51.120;3.702;2023-05-19T21:55:51;23.15;;;7.95;;
25687;SDS011;17407;51.120;3.702;2023-05-19T21:58:17;16.75;;;7.68;;
25687;SDS011;17407;51.120;3.702;2023-05-19T22:00:49;19.80;;;8.00;;
25687;SDS011;17407;51.120;3.702;2023-05-19T22:03:15;16.42;;;7.00;;
25687;SDS011;17407;51.120;3.702;2023-05-19T22:05:41;23.55;;;7.65;;
25687;SDS011;17407;51.120;3.702;2023-05-19T22:08:11;24.17;;;8.30;;
25687;SDS011;17407;51.120;3.702;2023-05-19T22:10:37;20.60;;;8.45;;
25687;SDS011;17407;51.120;3.702;2023-05-19T22:13:02;21.08;;;9.10;;
25687;SDS011;17407;51.120;3.702;2023-05-19T22:15:28;21.98;;;8.18;;
25687;SDS011;17407;51.120;3.702;2023-05-19T22:17:54;14.88;;;8.30;;
25687;SDS011;17407;51.120;3.702;2023-05-19T22:20:19;20.15;;;8.30;;
25687;SDS011;17407;51.120;3.702;2023-05-19T22:22:45;18.33;;;8.18;;
25687;SDS011;17407;51.120;3.702;2023-05-19T22:25:11;18.67;;;8.98;;
25687;SDS011;17407;51.120;3.702;2023-05-19T22:27:36;14.55;;;7.93;;
25687;SDS011;17407;51.120;3.702;2023-05-19T22:30:02;21.90;;;9.52;;
25687;SDS011;17407;51.120;3.702;2023-05-19T22:32:28;16.88;;;9.40;;
25687;SDS011;17407;51.120;3.702;2023-05-19T22:34:54;20.83;;;9.18;;
25687;SDS011;17407;51.120;3.702;2023-05-19T22:37:21;29.02;;;9.60;;
25687;SDS011;17407;51.120;3.702;2023-05-19T22:39:47;19.45;;;10.25;;
25687;SDS011;17407;51.120;3.702;2023-05-19T22:42:13;16.77;;;9.15;;
25687;SDS011;17407;51.120;3.702;2023-05-19T22:44:38;23.85;;;9.82;;
25687;SDS011;17407;51.120;3.702;2023-05-19T22:47:04;19.60;;;8.80;;
25687;SDS011;17407;51.120;3.702;2023-05-19T22:49:29;25.08;;;11.55;;
25687;SDS011;17407;51.120;3.702;2023-05-19T22:51:55;19.65;;;9.70;;
25687;SDS011;17407;51.120;3.702;2023-05-19T22:54:21;24.60;;;11.10;;
25687;SDS011;17407;51.120;3.702;2023-05-19T22:56:46;24.20;;;12.02;;
25687;SDS011;17407;51.120;3.702;2023-05-19T22:59:12;18.27;;;11.13;;
25687;SDS011;17407;51.120;3.702;2023-05-19T23:01:41;20.77;;;10.80;;
25687;SDS011;17407;51.120;3.702;2023-05-19T23:04:07;25.10;;;11.57;;
25687;SDS011;17407;51.120;3.702;2023-05-19T23:06:32;22.70;;;11.90;;
25687;SDS011;17407;51.120;3.702;2023-05-19T23:08:59;24.85;;;11.02;;
25687;SDS011;17407;51.120;3.702;2023-05-19T23:11:25;21.02;;;11.00;;
25687;SDS011;17407;51.120;3.702;2023-05-19T23:13:51;20.80;;;10.90;;
25687;SDS011;17407;51.120;3.702;2023-05-19T23:16:17;27.33;;;11.85;;
25687;SDS011;17407;51.120;3.702;2023-05-19T23:18:42;22.25;;;11.73;;
25687;SDS011;17407;51.120;3.702;2023-05-19T23:21:08;20.63;;;12.40;;
25687;SDS011;17407;51.120;3.702;2023-05-19T23:23:34;20.27;;;11.50;;
25687;SDS011;17407;51.120;3.702;2023-05-19T23:26:00;27.05;;;12.80;;
25687;SDS011;17407;51.120;3.702;2023-05-19T23:28:27;23.83;;;12.57;;
25687;SDS011;17407;51.120;3.702;2023-05-19T23:30:52;24.73;;;12.38;;
25687;SDS011;17407;51.120;3.702;2023-05-19T23:33:18;25.13;;;12.93;;
25687;SDS011;17407;51.120;3.702;2023-05-19T23:35:44;25.73;;;12.95;;
25687;SDS011;17407;51.120;3.702;2023-05-19T23:38:10;28.00;;;13.65;;
25687;SDS011;17407;51.120;3.702;2023-05-19T23:40:36;26.10;;;13.07;;
25687;SDS011;17407;51.120;3.702;2023-05-19T23:43:02;27.60;;;13.85;;
25687;SDS011;17407;51.120;3.702;2023-05-19T23:45:27;27.80;;;14.13;;
25687;SDS011;17407;51.120;3.702;2023-05-19T23:47:53;29.13;;;14.15;;
25687;SDS011;17407;51.120;3.702;2023-05-19T23:50:18;24.52;;;13.85;;
25687;SDS011;17407;51.120;3.702;2023-05-19T23:52:44;29.48;;;15.15;;
25687;SDS011;17407;51.120;3.702;2023-05-19T23:55:10;22.08;;;13.43;;
25687;SDS011;17407;51.120;3.702;2023-05-19T23:57:36;22.42;;;14.55;;
